createdAt,value
2022-12-03T00:02:33.985Z,103835.56
2022-12-03T00:12:37.193Z,103841.03
2022-12-03T00:22:41.570Z,103842.97
2022-12-03T00:32:44.557Z,103848.00
2022-12-03T00:42:48.964Z,103851.81
2022-12-03T00:52:51.929Z,103856.75
2022-12-03T01:02:56.489Z,103861.25
2022-12-03T01:12:59.413Z,103866.16
2022-12-03T01:23:03.798Z,103870.75
2022-12-03T01:33:06.741Z,103875.94
2022-12-03T01:43:11.359Z,103875.66
2022-12-03T01:53:18.689Z,103879.59
2022-12-03T02:03:24.850Z,103880.41
2022-12-03T02:13:28.462Z,103883.91
2022-12-03T02:23:37.151Z,103887.97
2022-12-03T02:33:41.767Z,103892.75
2022-12-03T02:43:44.785Z,103890.63
2022-12-03T02:53:52.407Z,103894.53
2022-12-03T03:03:55.517Z,103900.25
2022-12-03T03:14:01.816Z,103903.66
2022-12-03T03:24:06.004Z,103904.22
2022-12-03T03:34:11.051Z,103908.94
2022-12-03T03:44:14.500Z,103912.88
2022-12-03T03:54:19.169Z,103917.34
2022-12-03T04:04:24.968Z,103922.03
2022-12-03T04:14:29.505Z,103926.69
2022-12-03T04:24:32.382Z,103932.06
2022-12-03T04:34:57.625Z,103937.81
2022-12-03T04:45:00.632Z,103938.38
2022-12-03T04:55:05.676Z,103944.59
2022-12-03T05:05:11.232Z,103951.63
2022-12-03T05:15:15.730Z,103956.94
2022-12-03T05:25:18.622Z,103961.97
2022-12-03T05:35:22.831Z,103968.13
2022-12-03T05:45:27.268Z,103973.94
2022-12-03T05:55:31.622Z,103971.22
2022-12-03T06:05:37.968Z,103976.88
2022-12-03T06:15:45.178Z,103982.69
2022-12-03T06:25:48.342Z,103987.41
2022-12-03T06:35:52.693Z,103993.09
2022-12-03T06:45:55.718Z,103999.03
2022-12-03T06:56:00.147Z,104004.31
2022-12-03T07:06:02.988Z,104009.13
2022-12-03T07:16:08.248Z,104014.25
2022-12-03T07:26:11.661Z,104019.41
2022-12-03T07:36:16.367Z,104024.41
2022-12-03T07:46:20.946Z,104028.66
2022-12-03T07:56:25.244Z,104032.34
2022-12-03T08:06:28.246Z,104035.66
2022-12-03T08:16:32.964Z,104038.88
2022-12-03T08:26:36.437Z,104041.88
2022-12-03T08:36:40.963Z,104044.06
2022-12-03T08:46:43.730Z,104043.91
2022-12-03T08:56:48.062Z,104047.09
2022-12-03T09:06:51.071Z,104050.84
2022-12-03T09:16:56.384Z,104049.50
2022-12-03T09:26:59.463Z,104052.38
2022-12-03T09:37:03.814Z,104054.63
2022-12-03T09:47:07.415Z,104057.44
2022-12-03T09:57:15.562Z,104060.72
2022-12-03T10:07:18.574Z,104061.44
2022-12-03T10:17:23.127Z,104062.31
2022-12-03T10:27:31.079Z,104060.13
2022-12-03T10:37:35.425Z,104060.50
2022-12-03T10:47:38.304Z,104061.09
2022-12-03T10:57:45.919Z,104062.22
2022-12-03T11:07:49.594Z,104061.97
2022-12-03T11:53:31.650Z,104065.19
2022-12-03T12:03:38.102Z,104066.91
2022-12-03T12:13:54.923Z,104062.16
2022-12-03T12:23:58.056Z,104064.47
2022-12-03T12:34:02.727Z,104061.47
2022-12-03T12:44:09.993Z,104060.19
2022-12-03T12:54:17.515Z,104063.00
2022-12-03T13:04:23.178Z,104061.41
2022-12-03T13:14:36.921Z,104064.59
2022-12-03T13:24:45.120Z,104064.91
2022-12-03T13:34:55.592Z,104067.13
2022-12-03T13:44:58.819Z,104066.34
2022-12-03T13:55:04.497Z,104066.75
2022-12-03T14:05:08.402Z,104061.66
2022-12-03T14:15:13.008Z,104064.41
2022-12-03T14:25:16.082Z,104065.38
2022-12-03T14:35:23.601Z,104064.53
2022-12-03T14:45:28.921Z,104067.47
2022-12-03T14:55:33.835Z,104068.94
2022-12-03T15:05:37.098Z,104070.63
2022-12-03T15:15:41.694Z,104073.41
2022-12-03T15:25:44.787Z,104076.47
2022-12-03T15:35:49.142Z,104075.25
2022-12-03T15:45:52.395Z,104074.69
2022-12-03T15:55:56.734Z,104077.63
2022-12-03T16:05:59.870Z,104081.78
2022-12-03T16:16:04.530Z,104083.63
2022-12-03T16:26:09.038Z,104085.22
2022-12-03T16:36:13.520Z,104081.69
2022-12-03T16:46:19.357Z,104085.72
2022-12-03T16:56:23.899Z,104086.41
2022-12-03T17:06:27.745Z,104085.31
2022-12-03T17:16:32.279Z,104081.03
2022-12-03T17:26:35.611Z,104079.41
2022-12-03T17:36:40.511Z,104082.41
2022-12-03T17:46:43.901Z,104086.03
2022-12-03T17:56:49.882Z,104087.34
2022-12-03T18:06:56.146Z,104092.78
2022-12-03T18:17:03.230Z,104098.34
2022-12-03T18:27:08.735Z,104099.81
2022-12-03T18:37:17.775Z,104102.13
2022-12-03T18:47:22.778Z,104102.59
2022-12-03T18:57:27.599Z,104098.41
2022-12-03T19:07:30.674Z,104101.84
2022-12-03T19:17:35.024Z,104105.63
2022-12-03T19:27:37.957Z,104111.38
2022-12-03T19:37:42.477Z,104111.28
2022-12-03T19:47:45.576Z,104114.66
2022-12-03T19:57:49.975Z,104117.94
2022-12-03T20:07:52.876Z,104123.81
2022-12-03T20:17:57.418Z,104131.00
2022-12-03T20:28:08.405Z,104137.66
2022-12-03T20:38:12.834Z,104135.31
2022-12-03T20:48:18.036Z,104140.50
2022-12-03T20:58:22.517Z,104146.19
2022-12-03T21:18:46.022Z,104156.03
2022-12-03T21:28:51.574Z,104161.72
2022-12-03T21:38:56.118Z,104167.75
2022-12-03T21:49:00.240Z,104173.22
2022-12-03T21:59:04.798Z,104177.75
2022-12-03T22:09:07.626Z,104181.78
2022-12-03T22:19:11.875Z,104186.50
2022-12-03T22:29:15.229Z,104190.03
2022-12-03T22:39:20.400Z,104193.94
2022-12-03T22:49:23.455Z,104196.25
2022-12-03T22:59:27.882Z,104199.50
2022-12-03T23:09:31.039Z,104203.53
2022-12-03T23:19:35.942Z,104204.25
2022-12-03T23:29:39.033Z,104208.53
2022-12-03T23:39:43.503Z,104212.13
2022-12-03T23:49:46.482Z,104210.19
2022-12-03T23:59:51.427Z,104213.28
